West Pittsburg, Pennsylvania
Current Conditions -  °F | °C
As of 4:35 AM on Monday 24 Nov 2014 (Local Time) from KBTP Reporting Station
Overcast Overcast  
Wind Chill: 57°   Ceiling: 4100
Heat Index: 57°   Visibility: 10mi
Dew Point: 52°   Wind: 12mph
Humidity: 82%   Direction: 180°S
Pressure: 29.42"   Gusts: 26mph
Location:  40.93°N, 80.36°W
Report Text: KBTP 240935Z AUTO 18010G23KT 10SM BKN041 OVC048 14/11 A2942 RMK AO1
Loading
Personal Weather Stations






























Interactive Weather Map New forecast layout! Learn more

10-Day Weather Forecast

Advertisements
Track Severe Weather on mobile